sensor_id;sensor_type;location;lat;lon;timestamp;P1;durP1;ratioP1;P2;durP2;ratioP2
15246;SDS011;7726;48.820;9.248;2022-12-24T00:01:04;2.65;;;1.55;;
15246;SDS011;7726;48.820;9.248;2022-12-24T00:03:31;1.95;;;1.20;;
15246;SDS011;7726;48.820;9.248;2022-12-24T00:05:58;4.50;;;1.53;;
15246;SDS011;7726;48.820;9.248;2022-12-24T00:08:25;4.97;;;1.50;;
15246;SDS011;7726;48.820;9.248;2022-12-24T00:10:53;3.73;;;1.33;;
15246;SDS011;7726;48.820;9.248;2022-12-24T00:13:21;3.47;;;1.30;;
15246;SDS011;7726;48.820;9.248;2022-12-24T00:15:48;4.13;;;1.00;;
15246;SDS011;7726;48.820;9.248;2022-12-24T00:18:15;2.77;;;1.27;;
15246;SDS011;7726;48.820;9.248;2022-12-24T00:20:44;6.27;;;1.87;;
15246;SDS011;7726;48.820;9.248;2022-12-24T00:23:12;5.13;;;1.77;;
15246;SDS011;7726;48.820;9.248;2022-12-24T00:25:39;1.53;;;1.20;;
15246;SDS011;7726;48.820;9.248;2022-12-24T00:28:06;5.27;;;1.43;;
15246;SDS011;7726;48.820;9.248;2022-12-24T00:30:36;4.10;;;1.70;;
15246;SDS011;7726;48.820;9.248;2022-12-24T00:33:03;4.00;;;1.40;;
15246;SDS011;7726;48.820;9.248;2022-12-24T00:35:32;3.70;;;1.30;;
15246;SDS011;7726;48.820;9.248;2022-12-24T00:37:59;3.77;;;1.50;;
15246;SDS011;7726;48.820;9.248;2022-12-24T00:40:27;4.50;;;1.17;;
15246;SDS011;7726;48.820;9.248;2022-12-24T00:42:55;2.57;;;1.17;;
15246;SDS011;7726;48.820;9.248;2022-12-24T00:45:22;3.80;;;1.40;;
15246;SDS011;7726;48.820;9.248;2022-12-24T00:47:52;3.67;;;1.10;;
15246;SDS011;7726;48.820;9.248;2022-12-24T00:50:19;5.90;;;1.53;;
15246;SDS011;7726;48.820;9.248;2022-12-24T00:52:46;4.20;;;1.10;;
15246;SDS011;7726;48.820;9.248;2022-12-24T00:55:13;2.87;;;1.40;;
15246;SDS011;7726;48.820;9.248;2022-12-24T00:57:40;3.90;;;1.10;;
15246;SDS011;7726;48.820;9.248;2022-12-24T01:00:08;7.40;;;1.50;;
15246;SDS011;7726;48.820;9.248;2022-12-24T01:02:35;6.27;;;1.30;;
15246;SDS011;7726;48.820;9.248;2022-12-24T01:05:04;4.87;;;1.47;;
15246;SDS011;7726;48.820;9.248;2022-12-24T01:07:37;4.60;;;1.30;;
15246;SDS011;7726;48.820;9.248;2022-12-24T01:10:05;3.33;;;1.13;;
15246;SDS011;7726;48.820;9.248;2022-12-24T01:12:33;5.67;;;1.50;;
15246;SDS011;7726;48.820;9.248;2022-12-24T01:15:00;6.93;;;1.83;;
15246;SDS011;7726;48.820;9.248;2022-12-24T01:17:27;5.05;;;1.30;;
15246;SDS011;7726;48.820;9.248;2022-12-24T01:19:56;2.83;;;1.20;;
15246;SDS011;7726;48.820;9.248;2022-12-24T01:22:25;3.50;;;1.23;;
15246;SDS011;7726;48.820;9.248;2022-12-24T01:24:52;7.43;;;1.70;;
15246;SDS011;7726;48.820;9.248;2022-12-24T01:27:19;3.47;;;1.17;;
15246;SDS011;7726;48.820;9.248;2022-12-24T01:29:46;5.50;;;1.50;;
15246;SDS011;7726;48.820;9.248;2022-12-24T01:32:13;5.17;;;1.70;;
15246;SDS011;7726;48.820;9.248;2022-12-24T01:34:40;3.27;;;1.50;;
15246;SDS011;7726;48.820;9.248;2022-12-24T01:37:07;5.70;;;1.67;;
15246;SDS011;7726;48.820;9.248;2022-12-24T01:39:36;4.47;;;1.47;;
15246;SDS011;7726;48.820;9.248;2022-12-24T01:42:10;5.18;;;1.50;;
15246;SDS011;7726;48.820;9.248;2022-12-24T01:44:54;8.18;;;1.65;;
15246;SDS011;7726;48.820;9.248;2022-12-24T01:47:22;8.97;;;1.80;;
15246;SDS011;7726;48.820;9.248;2022-12-24T01:49:54;6.97;;;1.63;;
15246;SDS011;7726;48.820;9.248;2022-12-24T01:52:23;8.93;;;2.17;;
15246;SDS011;7726;48.820;9.248;2022-12-24T01:54:52;7.70;;;1.50;;
15246;SDS011;7726;48.820;9.248;2022-12-24T01:57:21;5.67;;;1.60;;
15246;SDS011;7726;48.820;9.248;2022-12-24T01:59:51;7.67;;;2.10;;
15246;SDS011;7726;48.820;9.248;2022-12-24T02:02:19;7.23;;;1.87;;
15246;SDS011;7726;48.820;9.248;2022-12-24T02:04:49;8.47;;;2.00;;
15246;SDS011;7726;48.820;9.248;2022-12-24T02:07:16;8.93;;;1.90;;
15246;SDS011;7726;48.820;9.248;2022-12-24T02:09:43;7.63;;;1.87;;
15246;SDS011;7726;48.820;9.248;2022-12-24T02:12:12;6.27;;;1.50;;
15246;SDS011;7726;48.820;9.248;2022-12-24T02:14:39;5.63;;;1.77;;
15246;SDS011;7726;48.820;9.248;2022-12-24T02:17:09;7.70;;;1.97;;
15246;SDS011;7726;48.820;9.248;2022-12-24T02:19:48;7.03;;;1.63;;
15246;SDS011;7726;48.820;9.248;2022-12-24T02:22:20;10.83;;;1.80;;
15246;SDS011;7726;48.820;9.248;2022-12-24T02:25:03;8.83;;;2.37;;
15246;SDS011;7726;48.820;9.248;2022-12-24T02:27:40;7.43;;;1.80;;
15246;SDS011;7726;48.820;9.248;2022-12-24T02:30:11;8.33;;;1.97;;
15246;SDS011;7726;48.820;9.248;2022-12-24T02:32:42;9.80;;;2.20;;
15246;SDS011;7726;48.820;9.248;2022-12-24T02:35:11;5.73;;;1.57;;
15246;SDS011;7726;48.820;9.248;2022-12-24T02:37:40;5.23;;;1.93;;
15246;SDS011;7726;48.820;9.248;2022-12-24T02:40:09;6.77;;;2.30;;
15246;SDS011;7726;48.820;9.248;2022-12-24T02:42:38;7.77;;;1.83;;
15246;SDS011;7726;48.820;9.248;2022-12-24T02:45:06;9.17;;;2.10;;
15246;SDS011;7726;48.820;9.248;2022-12-24T02:47:35;8.87;;;2.00;;
15246;SDS011;7726;48.820;9.248;2022-12-24T02:50:04;7.20;;;1.43;;
15246;SDS011;7726;48.820;9.248;2022-12-24T02:52:33;6.83;;;1.97;;
15246;SDS011;7726;48.820;9.248;2022-12-24T02:55:02;8.93;;;1.80;;
15246;SDS011;7726;48.820;9.248;2022-12-24T02:57:32;10.37;;;1.83;;
15246;SDS011;7726;48.820;9.248;2022-12-24T03:00:05;8.43;;;1.90;;
15246;SDS011;7726;48.820;9.248;2022-12-24T03:02:38;8.33;;;1.70;;
15246;SDS011;7726;48.820;9.248;2022-12-24T03:05:11;6.00;;;1.70;;
15246;SDS011;7726;48.820;9.248;2022-12-24T03:07:42;5.00;;;1.40;;
15246;SDS011;7726;48.820;9.248;2022-12-24T03:10:13;9.60;;;1.73;;
15246;SDS011;7726;48.820;9.248;2022-12-24T03:12:45;6.60;;;1.80;;
15246;SDS011;7726;48.820;9.248;2022-12-24T03:15:14;7.63;;;1.77;;
15246;SDS011;7726;48.820;9.248;2022-12-24T03:17:44;7.87;;;2.20;;
15246;SDS011;7726;48.820;9.248;2022-12-24T03:20:13;6.80;;;2.07;;
15246;SDS011;7726;48.820;9.248;2022-12-24T03:22:42;8.00;;;1.70;;
15246;SDS011;7726;48.820;9.248;2022-12-24T03:25:09;3.27;;;1.67;;
15246;SDS011;7726;48.820;9.248;2022-12-24T03:27:36;10.37;;;2.13;;
15246;SDS011;7726;48.820;9.248;2022-12-24T03:30:07;5.60;;;2.00;;
15246;SDS011;7726;48.820;9.248;2022-12-24T03:32:34;7.20;;;1.97;;
15246;SDS011;7726;48.820;9.248;2022-12-24T03:35:03;7.60;;;1.90;;
15246;SDS011;7726;48.820;9.248;2022-12-24T03:37:30;8.87;;;1.93;;
15246;SDS011;7726;48.820;9.248;2022-12-24T03:39:57;9.63;;;2.33;;
15246;SDS011;7726;48.820;9.248;2022-12-24T03:42:24;6.07;;;1.73;;
15246;SDS011;7726;48.820;9.248;2022-12-24T03:44:51;7.83;;;1.83;;
15246;SDS011;7726;48.820;9.248;2022-12-24T03:47:18;7.97;;;1.73;;
15246;SDS011;7726;48.820;9.248;2022-12-24T03:49:45;8.60;;;2.03;;
15246;SDS011;7726;48.820;9.248;2022-12-24T03:52:14;6.83;;;1.73;;
15246;SDS011;7726;48.820;9.248;2022-12-24T03:54:41;6.17;;;2.13;;
15246;SDS011;7726;48.820;9.248;2022-12-24T03:57:08;8.77;;;2.10;;
15246;SDS011;7726;48.820;9.248;2022-12-24T03:59:35;7.33;;;1.93;;
15246;SDS011;7726;48.820;9.248;2022-12-24T04:02:02;5.80;;;1.47;;
15246;SDS011;7726;48.820;9.248;2022-12-24T04:04:29;7.47;;;2.67;;
15246;SDS011;7726;48.820;9.248;2022-12-24T04:06:57;6.00;;;2.20;;
15246;SDS011;7726;48.820;9.248;2022-12-24T04:09:26;6.47;;;2.03;;
15246;SDS011;7726;48.820;9.248;2022-12-24T04:11:53;6.37;;;1.73;;
15246;SDS011;7726;48.820;9.248;2022-12-24T04:14:20;7.30;;;1.73;;
15246;SDS011;7726;48.820;9.248;2022-12-24T04:16:47;5.50;;;2.00;;
15246;SDS011;7726;48.820;9.248;2022-12-24T04:19:14;10.27;;;2.00;;
15246;SDS011;7726;48.820;9.248;2022-12-24T04:21:41;7.07;;;1.83;;
15246;SDS011;7726;48.820;9.248;2022-12-24T04:24:08;7.80;;;1.77;;
15246;SDS011;7726;48.820;9.248;2022-12-24T04:26:37;8.27;;;1.70;;
15246;SDS011;7726;48.820;9.248;2022-12-24T04:29:04;7.13;;;1.67;;
15246;SDS011;7726;48.820;9.248;2022-12-24T04:31:31;7.30;;;1.70;;
15246;SDS011;7726;48.820;9.248;2022-12-24T04:33:58;7.53;;;1.80;;
15246;SDS011;7726;48.820;9.248;2022-12-24T04:36:25;6.97;;;1.90;;
15246;SDS011;7726;48.820;9.248;2022-12-24T04:38:52;6.77;;;1.60;;
15246;SDS011;7726;48.820;9.248;2022-12-24T04:41:20;8.90;;;2.07;;
15246;SDS011;7726;48.820;9.248;2022-12-24T04:43:49;7.27;;;2.00;;
15246;SDS011;7726;48.820;9.248;2022-12-24T04:46:16;5.23;;;1.43;;
15246;SDS011;7726;48.820;9.248;2022-12-24T04:48:44;8.33;;;2.23;;
15246;SDS011;7726;48.820;9.248;2022-12-24T04:51:12;7.33;;;1.80;;
15246;SDS011;7726;48.820;9.248;2022-12-24T04:53:39;8.67;;;2.30;;
15246;SDS011;7726;48.820;9.248;2022-12-24T04:56:06;7.20;;;2.47;;
15246;SDS011;7726;48.820;9.248;2022-12-24T04:58:34;4.83;;;1.80;;
15246;SDS011;7726;48.820;9.248;2022-12-24T05:01:04;6.57;;;2.07;;
15246;SDS011;7726;48.820;9.248;2022-12-24T05:03:31;4.17;;;1.73;;
15246;SDS011;7726;48.820;9.248;2022-12-24T05:06:01;8.13;;;1.80;;
15246;SDS011;7726;48.820;9.248;2022-12-24T05:08:28;5.90;;;1.80;;
15246;SDS011;7726;48.820;9.248;2022-12-24T05:10:56;7.07;;;1.77;;
15246;SDS011;7726;48.820;9.248;2022-12-24T05:13:23;5.03;;;2.00;;
15246;SDS011;7726;48.820;9.248;2022-12-24T05:15:50;8.30;;;2.10;;
15246;SDS011;7726;48.820;9.248;2022-12-24T05:18:19;3.97;;;1.73;;
15246;SDS011;7726;48.820;9.248;2022-12-24T05:20:46;6.10;;;2.07;;
15246;SDS011;7726;48.820;9.248;2022-12-24T05:23:14;5.23;;;1.93;;
15246;SDS011;7726;48.820;9.248;2022-12-24T05:25:55;9.43;;;1.90;;
15246;SDS011;7726;48.820;9.248;2022-12-24T05:28:40;6.00;;;1.90;;
15246;SDS011;7726;48.820;9.248;2022-12-24T05:31:07;5.93;;;1.67;;
15246;SDS011;7726;48.820;9.248;2022-12-24T05:33:36;7.60;;;2.10;;
15246;SDS011;7726;48.820;9.248;2022-12-24T05:36:03;7.23;;;2.30;;
15246;SDS011;7726;48.820;9.248;2022-12-24T05:38:30;8.37;;;2.10;;
15246;SDS011;7726;48.820;9.248;2022-12-24T05:40:57;6.20;;;1.70;;
15246;SDS011;7726;48.820;9.248;2022-12-24T05:43:24;4.87;;;2.17;;
15246;SDS011;7726;48.820;9.248;2022-12-24T05:45:56;5.27;;;1.90;;
15246;SDS011;7726;48.820;9.248;2022-12-24T05:48:23;6.30;;;1.60;;
15246;SDS011;7726;48.820;9.248;2022-12-24T05:50:51;9.13;;;1.73;;
15246;SDS011;7726;48.820;9.248;2022-12-24T05:53:18;4.80;;;1.90;;
15246;SDS011;7726;48.820;9.248;2022-12-24T05:55:45;2.70;;;1.50;;
15246;SDS011;7726;48.820;9.248;2022-12-24T05:58:13;8.33;;;1.90;;
15246;SDS011;7726;48.820;9.248;2022-12-24T06:00:40;5.03;;;1.80;;
15246;SDS011;7726;48.820;9.248;2022-12-24T06:03:07;7.83;;;1.77;;
15246;SDS011;7726;48.820;9.248;2022-12-24T06:05:34;6.13;;;2.03;;
15246;SDS011;7726;48.820;9.248;2022-12-24T06:08:03;7.00;;;2.10;;
15246;SDS011;7726;48.820;9.248;2022-12-24T06:10:30;7.77;;;1.53;;
15246;SDS011;7726;48.820;9.248;2022-12-24T06:12:57;5.70;;;1.73;;
15246;SDS011;7726;48.820;9.248;2022-12-24T06:15:24;9.50;;;2.43;;
15246;SDS011;7726;48.820;9.248;2022-12-24T06:17:51;8.73;;;2.03;;
15246;SDS011;7726;48.820;9.248;2022-12-24T06:20:18;5.80;;;2.00;;
15246;SDS011;7726;48.820;9.248;2022-12-24T06:22:45;4.67;;;2.37;;
15246;SDS011;7726;48.820;9.248;2022-12-24T06:25:14;5.97;;;1.87;;
15246;SDS011;7726;48.820;9.248;2022-12-24T06:27:41;8.50;;;2.07;;
15246;SDS011;7726;48.820;9.248;2022-12-24T06:30:09;9.47;;;2.50;;
15246;SDS011;7726;48.820;9.248;2022-12-24T06:32:36;6.87;;;1.90;;
15246;SDS011;7726;48.820;9.248;2022-12-24T06:35:03;8.43;;;2.10;;
15246;SDS011;7726;48.820;9.248;2022-12-24T06:37:30;9.80;;;2.27;;
15246;SDS011;7726;48.820;9.248;2022-12-24T06:39:57;8.23;;;2.07;;
15246;SDS011;7726;48.820;9.248;2022-12-24T06:42:26;9.50;;;2.47;;
15246;SDS011;7726;48.820;9.248;2022-12-24T06:44:53;7.43;;;2.00;;
15246;SDS011;7726;48.820;9.248;2022-12-24T06:47:20;6.73;;;2.40;;
15246;SDS011;7726;48.820;9.248;2022-12-24T06:49:47;6.10;;;2.53;;
15246;SDS011;7726;48.820;9.248;2022-12-24T06:52:14;5.50;;;2.10;;
15246;SDS011;7726;48.820;9.248;2022-12-24T06:54:42;7.37;;;2.10;;
15246;SDS011;7726;48.820;9.248;2022-12-24T06:57:09;7.73;;;2.03;;
15246;SDS011;7726;48.820;9.248;2022-12-24T06:59:37;7.37;;;2.30;;
15246;SDS011;7726;48.820;9.248;2022-12-24T07:02:04;7.83;;;2.50;;
15246;SDS011;7726;48.820;9.248;2022-12-24T07:04:31;4.73;;;1.93;;
15246;SDS011;7726;48.820;9.248;2022-12-24T07:06:58;8.33;;;2.00;;
15246;SDS011;7726;48.820;9.248;2022-12-24T07:09:26;9.20;;;2.87;;
15246;SDS011;7726;48.820;9.248;2022-12-24T07:11:53;5.43;;;2.30;;
15246;SDS011;7726;48.820;9.248;2022-12-24T07:14:20;6.80;;;2.37;;
15246;SDS011;7726;48.820;9.248;2022-12-24T07:16:48;5.50;;;2.67;;
15246;SDS011;7726;48.820;9.248;2022-12-24T07:19:17;10.13;;;2.20;;
15246;SDS011;7726;48.820;9.248;2022-12-24T07:21:44;4.87;;;2.10;;
15246;SDS011;7726;48.820;9.248;2022-12-24T07:24:11;5.30;;;2.00;;
15246;SDS011;7726;48.820;9.248;2022-12-24T07:26:38;6.37;;;2.20;;
15246;SDS011;7726;48.820;9.248;2022-12-24T07:29:05;6.37;;;2.07;;
15246;SDS011;7726;48.820;9.248;2022-12-24T07:31:32;5.93;;;2.10;;
15246;SDS011;7726;48.820;9.248;2022-12-24T07:34:01;5.60;;;2.03;;
15246;SDS011;7726;48.820;9.248;2022-12-24T07:36:28;8.10;;;1.80;;
15246;SDS011;7726;48.820;9.248;2022-12-24T07:38:55;8.07;;;2.20;;
15246;SDS011;7726;48.820;9.248;2022-12-24T07:41:22;4.57;;;1.87;;
15246;SDS011;7726;48.820;9.248;2022-12-24T07:43:49;7.07;;;2.83;;
15246;SDS011;7726;48.820;9.248;2022-12-24T07:46:17;4.33;;;2.27;;
15246;SDS011;7726;48.820;9.248;2022-12-24T07:48:44;7.47;;;2.30;;
15246;SDS011;7726;48.820;9.248;2022-12-24T07:51:12;6.93;;;2.20;;
15246;SDS011;7726;48.820;9.248;2022-12-24T07:53:39;7.33;;;2.23;;
15246;SDS011;7726;48.820;9.248;2022-12-24T07:56:11;6.97;;;2.20;;
15246;SDS011;7726;48.820;9.248;2022-12-24T07:58:38;7.67;;;2.53;;
15246;SDS011;7726;48.820;9.248;2022-12-24T08:01:06;6.87;;;2.47;;
15246;SDS011;7726;48.820;9.248;2022-12-24T08:03:33;4.07;;;2.27;;
15246;SDS011;7726;48.820;9.248;2022-12-24T08:06:00;8.33;;;2.73;;
15246;SDS011;7726;48.820;9.248;2022-12-24T08:08:28;7.67;;;2.63;;
15246;SDS011;7726;48.820;9.248;2022-12-24T08:10:59;8.63;;;2.70;;
15246;SDS011;7726;48.820;9.248;2022-12-24T08:13:27;10.83;;;2.67;;
15246;SDS011;7726;48.820;9.248;2022-12-24T08:15:54;6.50;;;2.30;;
15246;SDS011;7726;48.820;9.248;2022-12-24T08:18:21;9.57;;;2.60;;
15246;SDS011;7726;48.820;9.248;2022-12-24T08:20:49;5.93;;;2.47;;
15246;SDS011;7726;48.820;9.248;2022-12-24T08:23:16;8.83;;;2.80;;
15246;SDS011;7726;48.820;9.248;2022-12-24T08:25:45;7.23;;;2.33;;
15246;SDS011;7726;48.820;9.248;2022-12-24T08:28:13;6.10;;;2.10;;
15246;SDS011;7726;48.820;9.248;2022-12-24T08:30:40;8.57;;;2.00;;
15246;SDS011;7726;48.820;9.248;2022-12-24T08:33:07;7.70;;;2.10;;
15246;SDS011;7726;48.820;9.248;2022-12-24T08:35:35;10.00;;;2.30;;
15246;SDS011;7726;48.820;9.248;2022-12-24T08:38:02;5.40;;;2.40;;
15246;SDS011;7726;48.820;9.248;2022-12-24T08:40:29;6.70;;;2.63;;
15246;SDS011;7726;48.820;9.248;2022-12-24T08:42:57;7.53;;;2.90;;
15246;SDS011;7726;48.820;9.248;2022-12-24T08:45:24;11.73;;;2.80;;
15246;SDS011;7726;48.820;9.248;2022-12-24T08:47:52;7.23;;;2.87;;
15246;SDS011;7726;48.820;9.248;2022-12-24T08:50:19;9.60;;;3.50;;
15246;SDS011;7726;48.820;9.248;2022-12-24T08:52:46;9.90;;;3.07;;
15246;SDS011;7726;48.820;9.248;2022-12-24T08:55:13;8.77;;;2.80;;
15246;SDS011;7726;48.820;9.248;2022-12-24T08:57:40;8.60;;;2.97;;
15246;SDS011;7726;48.820;9.248;2022-12-24T09:00:10;10.87;;;3.03;;
15246;SDS011;7726;48.820;9.248;2022-12-24T09:02:37;10.00;;;3.30;;
15246;SDS011;7726;48.820;9.248;2022-12-24T09:05:04;9.07;;;2.70;;
15246;SDS011;7726;48.820;9.248;2022-12-24T09:07:32;11.13;;;3.67;;
15246;SDS011;7726;48.820;9.248;2022-12-24T09:09:59;9.73;;;3.43;;
15246;SDS011;7726;48.820;9.248;2022-12-24T09:12:26;11.13;;;3.33;;
15246;SDS011;7726;48.820;9.248;2022-12-24T09:14:53;10.30;;;3.00;;
15246;SDS011;7726;48.820;9.248;2022-12-24T09:17:22;10.47;;;3.53;;
15246;SDS011;7726;48.820;9.248;2022-12-24T09:19:49;11.57;;;4.03;;
15246;SDS011;7726;48.820;9.248;2022-12-24T09:22:16;12.90;;;4.03;;
15246;SDS011;7726;48.820;9.248;2022-12-24T09:24:43;7.63;;;3.00;;
15246;SDS011;7726;48.820;9.248;2022-12-24T09:27:10;8.33;;;2.90;;
15246;SDS011;7726;48.820;9.248;2022-12-24T09:29:37;11.37;;;3.00;;
15246;SDS011;7726;48.820;9.248;2022-12-24T09:32:05;9.07;;;2.60;;
15246;SDS011;7726;48.820;9.248;2022-12-24T09:34:34;8.47;;;2.87;;
15246;SDS011;7726;48.820;9.248;2022-12-24T09:37:01;8.20;;;3.00;;
15246;SDS011;7726;48.820;9.248;2022-12-24T09:39:28;8.20;;;2.50;;
15246;SDS011;7726;48.820;9.248;2022-12-24T09:41:57;11.87;;;2.57;;
15246;SDS011;7726;48.820;9.248;2022-12-24T09:44:33;6.63;;;2.60;;
15246;SDS011;7726;48.820;9.248;2022-12-24T09:47:07;8.87;;;2.93;;
15246;SDS011;7726;48.820;9.248;2022-12-24T09:49:37;8.43;;;2.63;;
15246;SDS011;7726;48.820;9.248;2022-12-24T09:52:05;7.87;;;2.37;;
15246;SDS011;7726;48.820;9.248;2022-12-24T09:54:41;9.60;;;2.43;;
15246;SDS011;7726;48.820;9.248;2022-12-24T09:57:15;11.33;;;2.07;;
15246;SDS011;7726;48.820;9.248;2022-12-24T09:59:44;10.83;;;2.37;;
15246;SDS011;7726;48.820;9.248;2022-12-24T10:02:12;12.57;;;2.47;;
15246;SDS011;7726;48.820;9.248;2022-12-24T10:04:41;11.43;;;2.97;;
15246;SDS011;7726;48.820;9.248;2022-12-24T10:07:10;9.07;;;2.57;;
15246;SDS011;7726;48.820;9.248;2022-12-24T10:09:43;10.20;;;2.63;;
15246;SDS011;7726;48.820;9.248;2022-12-24T10:12:15;10.03;;;2.43;;
15246;SDS011;7726;48.820;9.248;2022-12-24T10:14:49;9.27;;;2.73;;
15246;SDS011;7726;48.820;9.248;2022-12-24T10:17:25;7.90;;;2.10;;
15246;SDS011;7726;48.820;9.248;2022-12-24T10:19:57;6.53;;;2.43;;
15246;SDS011;7726;48.820;9.248;2022-12-24T10:22:29;7.20;;;2.47;;
15246;SDS011;7726;48.820;9.248;2022-12-24T10:24:59;11.17;;;2.93;;
15246;SDS011;7726;48.820;9.248;2022-12-24T10:27:31;10.73;;;2.30;;
15246;SDS011;7726;48.820;9.248;2022-12-24T10:30:01;7.53;;;2.53;;
15246;SDS011;7726;48.820;9.248;2022-12-24T10:32:31;6.93;;;2.10;;
15246;SDS011;7726;48.820;9.248;2022-12-24T10:35:02;8.30;;;2.10;;
15246;SDS011;7726;48.820;9.248;2022-12-24T10:37:32;7.97;;;2.10;;
15246;SDS011;7726;48.820;9.248;2022-12-24T10:39:59;8.20;;;2.80;;
15246;SDS011;7726;48.820;9.248;2022-12-24T10:42:30;8.53;;;2.53;;
15246;SDS011;7726;48.820;9.248;2022-12-24T10:45:00;7.23;;;2.37;;
15246;SDS011;7726;48.820;9.248;2022-12-24T10:47:28;9.27;;;2.63;;
15246;SDS011;7726;48.820;9.248;2022-12-24T10:49:59;8.53;;;2.50;;
15246;SDS011;7726;48.820;9.248;2022-12-24T10:52:30;7.33;;;2.03;;
15246;SDS011;7726;48.820;9.248;2022-12-24T10:55:03;6.93;;;2.23;;
15246;SDS011;7726;48.820;9.248;2022-12-24T10:57:31;9.67;;;2.10;;
15246;SDS011;7726;48.820;9.248;2022-12-24T10:59:59;9.03;;;2.30;;
15246;SDS011;7726;48.820;9.248;2022-12-24T11:02:28;7.93;;;2.40;;
15246;SDS011;7726;48.820;9.248;2022-12-24T11:04:55;7.37;;;2.20;;
15246;SDS011;7726;48.820;9.248;2022-12-24T11:07:24;8.47;;;2.50;;
15246;SDS011;7726;48.820;9.248;2022-12-24T11:09:56;8.80;;;2.20;;
15246;SDS011;7726;48.820;9.248;2022-12-24T11:12:24;7.50;;;2.40;;
15246;SDS011;7726;48.820;9.248;2022-12-24T11:14:58;11.97;;;2.63;;
15246;SDS011;7726;48.820;9.248;2022-12-24T11:17:25;9.37;;;2.60;;
15246;SDS011;7726;48.820;9.248;2022-12-24T11:19:52;8.95;;;2.47;;
15246;SDS011;7726;48.820;9.248;2022-12-24T11:22:20;7.23;;;2.47;;
15246;SDS011;7726;48.820;9.248;2022-12-24T11:24:55;7.57;;;2.55;;
15246;SDS011;7726;48.820;9.248;2022-12-24T11:27:28;6.88;;;2.10;;
15246;SDS011;7726;48.820;9.248;2022-12-24T11:30:12;8.73;;;2.47;;
15246;SDS011;7726;48.820;9.248;2022-12-24T11:32:43;12.38;;;2.70;;
15246;SDS011;7726;48.820;9.248;2022-12-24T11:35:13;8.32;;;2.50;;
15246;SDS011;7726;48.820;9.248;2022-12-24T11:37:41;9.38;;;2.60;;
15246;SDS011;7726;48.820;9.248;2022-12-24T11:40:17;5.03;;;2.53;;
15246;SDS011;7726;48.820;9.248;2022-12-24T11:42:46;11.33;;;3.00;;
15246;SDS011;7726;48.820;9.248;2022-12-24T11:45:24;8.50;;;2.97;;
15246;SDS011;7726;48.820;9.248;2022-12-24T11:47:51;7.45;;;2.80;;
15246;SDS011;7726;48.820;9.248;2022-12-24T11:50:20;8.30;;;2.67;;
15246;SDS011;7726;48.820;9.248;2022-12-24T11:52:48;7.68;;;2.25;;
15246;SDS011;7726;48.820;9.248;2022-12-24T11:55:16;8.33;;;2.40;;
15246;SDS011;7726;48.820;9.248;2022-12-24T11:57:55;8.38;;;2.40;;
15246;SDS011;7726;48.820;9.248;2022-12-24T12:00:23;9.90;;;2.38;;
15246;SDS011;7726;48.820;9.248;2022-12-24T12:02:50;6.15;;;2.20;;
15246;SDS011;7726;48.820;9.248;2022-12-24T12:05:18;6.93;;;2.20;;
15246;SDS011;7726;48.820;9.248;2022-12-24T12:07:49;8.73;;;2.80;;
15246;SDS011;7726;48.820;9.248;2022-12-24T12:10:18;11.07;;;2.60;;
15246;SDS011;7726;48.820;9.248;2022-12-24T12:12:49;5.50;;;2.35;;
15246;SDS011;7726;48.820;9.248;2022-12-24T12:15:23;7.13;;;2.78;;
15246;SDS011;7726;48.820;9.248;2022-12-24T12:17:53;8.83;;;3.53;;
15246;SDS011;7726;48.820;9.248;2022-12-24T12:20:21;6.83;;;2.67;;
15246;SDS011;7726;48.820;9.248;2022-12-24T12:22:51;8.90;;;2.80;;
15246;SDS011;7726;48.820;9.248;2022-12-24T12:25:20;9.40;;;3.08;;
15246;SDS011;7726;48.820;9.248;2022-12-24T12:27:50;7.53;;;2.53;;
15246;SDS011;7726;48.820;9.248;2022-12-24T12:30:18;7.45;;;2.90;;
15246;SDS011;7726;48.820;9.248;2022-12-24T12:32:50;11.43;;;2.80;;
15246;SDS011;7726;48.820;9.248;2022-12-24T12:35:22;8.80;;;2.60;;
15246;SDS011;7726;48.820;9.248;2022-12-24T12:37:52;14.75;;;2.80;;
15246;SDS011;7726;48.820;9.248;2022-12-24T12:40:20;7.80;;;2.30;;
15246;SDS011;7726;48.820;9.248;2022-12-24T12:42:55;6.70;;;2.70;;
15246;SDS011;7726;48.820;9.248;2022-12-24T12:45:29;6.63;;;2.60;;
15246;SDS011;7726;48.820;9.248;2022-12-24T12:48:04;9.90;;;2.67;;
15246;SDS011;7726;48.820;9.248;2022-12-24T12:50:35;10.20;;;2.73;;
15246;SDS011;7726;48.820;9.248;2022-12-24T12:53:10;9.57;;;2.75;;
15246;SDS011;7726;48.820;9.248;2022-12-24T12:55:42;9.90;;;2.65;;
15246;SDS011;7726;48.820;9.248;2022-12-24T12:58:14;11.93;;;3.20;;
15246;SDS011;7726;48.820;9.248;2022-12-24T13:00:42;12.03;;;4.20;;
15246;SDS011;7726;48.820;9.248;2022-12-24T13:03:23;6.75;;;2.78;;
15246;SDS011;7726;48.820;9.248;2022-12-24T13:08:45;10.57;;;2.90;;
15246;SDS011;7726;48.820;9.248;2022-12-24T13:11:18;9.80;;;2.70;;
15246;SDS011;7726;48.820;9.248;2022-12-24T13:13:57;10.90;;;3.37;;
15246;SDS011;7726;48.820;9.248;2022-12-24T13:16:32;12.20;;;3.00;;
15246;SDS011;7726;48.820;9.248;2022-12-24T13:19:07;6.33;;;2.57;;
15246;SDS011;7726;48.820;9.248;2022-12-24T13:21:41;11.82;;;2.88;;
15246;SDS011;7726;48.820;9.248;2022-12-24T13:24:13;11.95;;;3.42;;
15246;SDS011;7726;48.820;9.248;2022-12-24T13:26:42;8.57;;;3.53;;
15246;SDS011;7726;48.820;9.248;2022-12-24T13:29:28;11.25;;;3.97;;
15246;SDS011;7726;48.820;9.248;2022-12-24T13:32:01;9.90;;;4.00;;
15246;SDS011;7726;48.820;9.248;2022-12-24T13:34:50;10.77;;;3.75;;
15246;SDS011;7726;48.820;9.248;2022-12-24T13:37:19;9.43;;;3.08;;
15246;SDS011;7726;48.820;9.248;2022-12-24T13:40:12;16.77;;;4.15;;
15246;SDS011;7726;48.820;9.248;2022-12-24T13:42:45;14.93;;;4.63;;
15246;SDS011;7726;48.820;9.248;2022-12-24T13:47:59;10.20;;;3.13;;
15246;SDS011;7726;48.820;9.248;2022-12-24T13:50:29;7.93;;;3.47;;
15246;SDS011;7726;48.820;9.248;2022-12-24T13:53:00;10.95;;;2.72;;
15246;SDS011;7726;48.820;9.248;2022-12-24T13:55:28;11.88;;;3.33;;
15246;SDS011;7726;48.820;9.248;2022-12-24T13:57:56;12.00;;;3.08;;
15246;SDS011;7726;48.820;9.248;2022-12-24T14:00:36;11.70;;;3.30;;
15246;SDS011;7726;48.820;9.248;2022-12-24T14:03:06;13.45;;;3.90;;
15246;SDS011;7726;48.820;9.248;2022-12-24T14:05:45;12.10;;;3.67;;
15246;SDS011;7726;48.820;9.248;2022-12-24T14:08:14;7.38;;;2.72;;
15246;SDS011;7726;48.820;9.248;2022-12-24T14:10:42;10.98;;;3.13;;
15246;SDS011;7726;48.820;9.248;2022-12-24T14:18:29;12.25;;;3.90;;
15246;SDS011;7726;48.820;9.248;2022-12-24T14:21:00;9.77;;;3.90;;
15246;SDS011;7726;48.820;9.248;2022-12-24T14:23:30;9.85;;;4.03;;
15246;SDS011;7726;48.820;9.248;2022-12-24T14:25:59;12.80;;;3.30;;
15246;SDS011;7726;48.820;9.248;2022-12-24T14:28:29;14.48;;;3.72;;
15246;SDS011;7726;48.820;9.248;2022-12-24T14:30:58;9.50;;;3.73;;
15246;SDS011;7726;48.820;9.248;2022-12-24T14:33:26;12.20;;;4.63;;
15246;SDS011;7726;48.820;9.248;2022-12-24T14:35:54;12.43;;;3.80;;
15246;SDS011;7726;48.820;9.248;2022-12-24T14:38:22;11.10;;;3.90;;
15246;SDS011;7726;48.820;9.248;2022-12-24T14:40:52;10.00;;;3.70;;
15246;SDS011;7726;48.820;9.248;2022-12-24T14:43:22;11.13;;;4.10;;
15246;SDS011;7726;48.820;9.248;2022-12-24T14:45:53;18.73;;;4.80;;
15246;SDS011;7726;48.820;9.248;2022-12-24T14:48:24;14.77;;;3.73;;
15246;SDS011;7726;48.820;9.248;2022-12-24T14:50:56;12.17;;;3.63;;
15246;SDS011;7726;48.820;9.248;2022-12-24T14:53:30;10.17;;;3.80;;
15246;SDS011;7726;48.820;9.248;2022-12-24T14:56:07;14.10;;;4.07;;
15246;SDS011;7726;48.820;9.248;2022-12-24T14:58:35;16.27;;;4.33;;
15246;SDS011;7726;48.820;9.248;2022-12-24T15:01:17;12.47;;;4.27;;
15246;SDS011;7726;48.820;9.248;2022-12-24T15:03:44;14.45;;;3.60;;
15246;SDS011;7726;48.820;9.248;2022-12-24T15:06:12;9.47;;;3.23;;
15246;SDS011;7726;48.820;9.248;2022-12-24T15:08:43;13.07;;;3.77;;
15246;SDS011;7726;48.820;9.248;2022-12-24T15:11:12;14.27;;;3.50;;
15246;SDS011;7726;48.820;9.248;2022-12-24T15:13:40;11.10;;;3.23;;
15246;SDS011;7726;48.820;9.248;2022-12-24T15:16:08;12.47;;;4.03;;
15246;SDS011;7726;48.820;9.248;2022-12-24T15:18:36;14.20;;;5.40;;
15246;SDS011;7726;48.820;9.248;2022-12-24T15:21:04;14.37;;;4.03;;